createdAt,value
2019-01-21T00:02:20.346Z,-3.79
2019-01-21T00:04:51.617Z,-3.86
2019-01-21T00:07:24.523Z,-3.93
2019-01-21T00:09:55.335Z,-3.99
2019-01-21T00:12:26.640Z,-3.90
2019-01-21T00:15:00.595Z,-3.82
2019-01-21T00:17:31.731Z,-3.87
2019-01-21T00:20:05.367Z,-3.84
2019-01-21T00:22:35.695Z,-3.90
2019-01-21T00:25:09.306Z,-4.05
2019-01-21T00:27:39.862Z,-4.03
2019-01-21T00:30:13.206Z,-4.10
2019-01-21T00:32:43.443Z,-4.03
2019-01-21T00:35:18.163Z,-4.12
2019-01-21T00:37:48.557Z,-4.07
2019-01-21T00:40:20.299Z,-4.06
2019-01-21T00:42:50.444Z,-4.15
2019-01-21T00:45:20.882Z,-4.12
2019-01-21T00:47:51.804Z,-4.25
2019-01-21T00:50:22.234Z,-4.31
2019-01-21T00:52:52.962Z,-4.26
2019-01-21T00:55:22.840Z,-4.35
2019-01-21T00:57:53.308Z,-4.33
2019-01-21T01:00:25.051Z,-4.42
2019-01-21T01:02:56.561Z,-4.40
2019-01-21T01:05:31.163Z,-4.46
2019-01-21T01:08:02.665Z,-4.53
2019-01-21T01:10:34.718Z,-4.37
2019-01-21T01:13:04.713Z,-4.22
2019-01-21T01:15:35.077Z,-4.37
2019-01-21T01:18:05.041Z,-4.40
2019-01-21T01:20:37.980Z,-4.40
2019-01-21T01:23:07.906Z,-4.27
2019-01-21T01:25:38.091Z,-4.33
2019-01-21T01:28:08.680Z,-4.35
2019-01-21T01:30:41.692Z,-4.37
2019-01-21T01:33:12.470Z,-4.49
2019-01-21T01:35:42.880Z,-4.53
2019-01-21T01:38:12.801Z,-4.39
2019-01-21T01:40:44.329Z,-4.54
2019-01-21T01:43:16.856Z,-4.48
2019-01-21T01:45:47.719Z,-4.53
2019-01-21T01:48:18.256Z,-4.46
2019-01-21T01:50:52.322Z,-4.57
2019-01-21T01:53:22.583Z,-4.62
2019-01-21T01:55:55.443Z,-4.48
2019-01-21T01:58:26.531Z,-4.49
2019-01-21T02:00:59.673Z,-4.58
2019-01-21T02:03:29.573Z,-4.62
2019-01-21T02:06:00.176Z,-4.63
2019-01-21T02:08:31.316Z,-4.67
2019-01-21T02:11:03.381Z,-4.53
2019-01-21T02:13:33.770Z,-4.62
2019-01-21T02:16:04.036Z,-4.62
2019-01-21T02:18:35.480Z,-4.69
2019-01-21T02:21:09.292Z,-4.69
2019-01-21T02:23:39.819Z,-4.69
2019-01-21T02:26:10.904Z,-4.79
2019-01-21T02:28:47.973Z,-4.65
2019-01-21T02:31:37.672Z,-4.78
2019-01-21T02:34:27.541Z,-4.70
2019-01-21T02:37:13.296Z,-4.89
2019-01-21T02:40:19.372Z,-4.99
2019-01-21T02:43:11.343Z,-5.00
2019-01-21T02:46:00.845Z,-5.01
2019-01-21T02:48:59.979Z,-5.08
2019-01-21T02:51:51.587Z,-4.90
2019-01-21T02:54:33.265Z,-4.94
2019-01-21T02:57:15.644Z,-4.96
2019-01-21T02:59:51.969Z,-4.94
2019-01-21T03:02:44.021Z,-5.04
2019-01-21T03:05:25.972Z,-5.01
2019-01-21T03:08:05.055Z,-4.85
2019-01-21T03:10:51.950Z,-4.88
2019-01-21T03:13:25.179Z,-4.75
2019-01-21T03:16:10.827Z,-4.80
2019-01-21T03:19:12.778Z,-4.85
2019-01-21T03:22:11.793Z,-4.92
2019-01-21T03:25:08.376Z,-4.83
2019-01-21T03:27:59.357Z,-4.85
2019-01-21T03:30:38.512Z,-4.85
2019-01-21T03:33:27.622Z,-4.73
2019-01-21T03:36:35.245Z,-4.73
2019-01-21T03:39:31.080Z,-4.72
2019-01-21T03:42:16.175Z,-4.69
2019-01-21T03:45:21.746Z,-4.60
2019-01-21T03:47:56.379Z,-4.63
2019-01-21T03:50:47.821Z,-4.62
2019-01-21T03:53:33.901Z,-4.50
2019-01-21T03:56:09.895Z,-4.47
2019-01-21T03:59:05.437Z,-4.53
2019-01-21T04:01:46.899Z,-4.58
2019-01-21T04:04:35.370Z,-4.56
2019-01-21T04:07:10.456Z,-4.64
2019-01-21T04:09:49.750Z,-4.51
2019-01-21T04:12:31.872Z,-4.53
2019-01-21T04:15:14.071Z,-4.44
2019-01-21T04:17:47.535Z,-4.54
2019-01-21T04:20:48.350Z,-4.53
2019-01-21T04:23:27.994Z,-4.57
2019-01-21T04:26:02.647Z,-4.59
2019-01-21T04:28:54.670Z,-4.55
2019-01-21T04:31:34.161Z,-4.54
2019-01-21T04:34:07.575Z,-4.44
2019-01-21T04:36:58.326Z,-4.57
2019-01-21T04:39:46.782Z,-4.33
2019-01-21T04:42:29.364Z,-4.49
2019-01-21T04:45:05.706Z,-4.45
2019-01-21T04:47:51.140Z,-4.46
2019-01-21T04:50:59.702Z,-4.34
2019-01-21T04:57:00.810Z,-4.25
2019-01-21T05:00:28.851Z,-4.12
2019-01-21T05:03:14.254Z,-4.08
2019-01-21T05:05:45.582Z,-4.01
2019-01-21T05:08:45.796Z,-3.90
2019-01-21T05:11:30.744Z,-3.97
2019-01-21T05:14:15.634Z,-3.79
2019-01-21T05:17:09.976Z,-3.64
2019-01-21T05:19:48.917Z,-3.71
2019-01-21T05:22:22.939Z,-3.60
2019-01-21T05:25:23.903Z,-3.69
2019-01-21T05:28:06.911Z,-3.66
2019-01-21T05:30:51.009Z,-3.60
2019-01-21T05:33:36.496Z,-3.66
2019-01-21T05:36:15.788Z,-3.54
2019-01-21T05:39:04.132Z,-3.60
2019-01-21T05:41:57.070Z,-3.66
2019-01-21T05:44:36.002Z,-3.63
2019-01-21T05:47:25.644Z,-3.53
2019-01-21T05:50:12.368Z,-3.56
2019-01-21T05:52:57.492Z,-3.44
2019-01-21T05:55:42.139Z,-3.42
2019-01-21T05:58:33.515Z,-3.41
2019-01-21T06:01:09.480Z,-3.28
2019-01-21T06:03:42.480Z,-3.33
2019-01-21T06:06:24.491Z,-3.41
2019-01-21T06:09:04.052Z,-3.38
2019-01-21T06:11:58.623Z,-3.42
2019-01-21T06:15:06.687Z,-3.52
2019-01-21T06:17:52.183Z,-3.39
2019-01-21T06:20:28.231Z,-3.50
2019-01-21T06:23:04.453Z,-3.53
2019-01-21T06:25:47.743Z,-3.57
2019-01-21T06:28:38.833Z,-3.54
2019-01-21T06:31:18.261Z,-3.50
2019-01-21T06:34:01.821Z,-3.66
2019-01-21T06:37:07.547Z,-3.47
2019-01-21T06:40:16.060Z,-3.60
2019-01-21T06:43:30.663Z,-3.51
2019-01-21T06:46:06.635Z,-3.43
2019-01-21T06:49:04.720Z,-3.38
2019-01-21T06:51:52.842Z,-3.46
2019-01-21T06:54:52.843Z,-3.47
2019-01-21T06:57:56.998Z,-3.44
2019-01-21T07:00:36.408Z,-3.46
2019-01-21T07:03:19.144Z,-3.45
2019-01-21T07:06:18.070Z,-3.44
2019-01-21T07:09:17.512Z,-3.31
2019-01-21T07:11:55.259Z,-3.40
2019-01-21T07:14:45.569Z,-3.46
2019-01-21T07:17:44.445Z,-3.23
2019-01-21T07:20:39.502Z,-3.16
2019-01-21T07:23:23.778Z,-3.22
2019-01-21T07:26:09.167Z,-2.98
2019-01-21T07:28:59.996Z,-3.22
2019-01-21T07:31:41.752Z,-3.06
2019-01-21T07:34:20.807Z,-3.14
2019-01-21T07:37:00.235Z,-3.08
2019-01-21T07:43:09.012Z,-3.16
2019-01-21T07:45:52.586Z,-3.16
2019-01-21T07:48:32.837Z,-3.25
2019-01-21T07:51:17.264Z,-3.22
2019-01-21T07:53:57.993Z,-3.19
2019-01-21T07:57:00.909Z,-3.00
2019-01-21T07:59:40.527Z,-3.05
2019-01-21T08:02:20.481Z,-2.95
2019-01-21T08:05:08.390Z,-2.88
2019-01-21T08:08:02.317Z,-2.96
2019-01-21T08:10:41.476Z,-2.90
2019-01-21T08:13:29.496Z,-2.73
2019-01-21T08:16:35.787Z,-2.68
2019-01-21T08:19:34.759Z,-2.82
2019-01-21T08:22:25.916Z,-2.73
2019-01-21T08:25:08.368Z,-2.61
2019-01-21T08:27:50.206Z,-2.72
2019-01-21T08:30:40.832Z,-2.66
2019-01-21T08:33:16.599Z,-2.62
2019-01-21T08:35:55.480Z,-2.68
2019-01-21T08:38:40.420Z,-2.72
2019-01-21T08:41:28.626Z,-2.57
2019-01-21T08:44:19.969Z,-2.57
2019-01-21T08:47:05.018Z,-2.48
2019-01-21T08:49:38.198Z,-2.48
2019-01-21T08:52:23.489Z,-2.46
2019-01-21T08:54:56.794Z,-2.28
2019-01-21T08:58:04.602Z,-2.28
2019-01-21T09:00:55.994Z,-2.20
2019-01-21T09:03:48.657Z,-2.20
2019-01-21T09:06:40.175Z,-2.16
2019-01-21T09:09:16.103Z,-2.02
2019-01-21T09:12:08.952Z,-2.12
2019-01-21T09:15:10.688Z,-1.98
2019-01-21T09:17:46.339Z,-1.99
2019-01-21T09:20:22.832Z,-1.84
2019-01-21T09:23:05.248Z,-1.73
2019-01-21T09:25:44.991Z,-1.58
2019-01-21T09:28:27.522Z,-1.51
2019-01-21T09:31:12.863Z,-1.48
2019-01-21T09:33:48.833Z,-1.48
2019-01-21T09:36:39.584Z,-1.53
2019-01-21T09:39:25.157Z,-1.49
2019-01-21T09:42:18.074Z,-1.45
2019-01-21T09:45:00.013Z,-1.34
2019-01-21T09:47:29.074Z,-1.23
2019-01-21T09:49:59.092Z,-1.20
2019-01-21T09:52:29.176Z,-1.19
2019-01-21T09:54:59.330Z,-1.30
2019-01-21T09:57:29.642Z,-1.40
2019-01-21T09:59:59.926Z,-1.47
2019-01-21T10:02:33.336Z,-1.46
2019-01-21T10:05:03.342Z,-1.45
2019-01-21T10:07:36.865Z,-1.43
2019-01-21T10:10:16.171Z,-1.42
2019-01-21T10:13:16.814Z,-1.36
2019-01-21T10:16:09.505Z,-1.36
2019-01-21T10:18:45.125Z,-1.38
2019-01-21T10:21:23.786Z,-1.44
2019-01-21T10:24:06.085Z,-1.38
2019-01-21T10:26:56.119Z,-1.23
2019-01-21T10:29:42.446Z,-1.22
2019-01-21T10:32:31.056Z,-0.89
2019-01-21T10:35:13.846Z,-0.73
2019-01-21T10:37:53.174Z,-0.76
2019-01-21T10:40:36.168Z,-0.71
2019-01-21T10:43:12.993Z,-0.52
2019-01-21T10:46:04.652Z,-0.22
2019-01-21T10:48:49.528Z,-0.30
2019-01-21T10:51:26.098Z,-0.35
2019-01-21T10:53:59.935Z,-0.39
2019-01-21T10:56:39.377Z,-0.49
2019-01-21T10:59:43.059Z,-0.55
2019-01-21T11:02:38.317Z,-0.66
2019-01-21T11:05:24.456Z,-0.73
2019-01-21T11:08:21.481Z,-0.47
2019-01-21T11:11:04.219Z,-0.43
2019-01-21T11:13:44.373Z,-0.44
2019-01-21T11:16:17.586Z,-0.30
2019-01-21T11:18:53.966Z,-0.14
2019-01-21T11:21:27.320Z,-0.09
2019-01-21T11:24:26.161Z,0.04
2019-01-21T11:27:11.945Z,0.08
2019-01-21T11:30:02.261Z,0.22
2019-01-21T11:32:51.210Z,0.28
2019-01-21T11:35:33.428Z,0.23
2019-01-21T11:38:18.893Z,0.30
2019-01-21T11:41:04.541Z,0.32
2019-01-21T11:43:40.779Z,0.38
2019-01-21T11:46:24.101Z,0.59
2019-01-21T11:49:04.584Z,0.62
2019-01-21T11:51:40.609Z,0.53
2019-01-21T11:54:22.838Z,0.48
2019-01-21T11:57:13.983Z,0.58
2019-01-21T11:59:49.670Z,0.65
2019-01-21T12:02:22.747Z,0.65
2019-01-21T12:05:01.438Z,0.64
2019-01-21T12:07:59.042Z,0.71
2019-01-21T12:10:48.530Z,0.73
2019-01-21T12:13:36.838Z,0.78
2019-01-21T12:16:16.019Z,0.80
2019-01-21T12:18:52.477Z,0.85
2019-01-21T12:21:40.695Z,1.00
2019-01-21T12:24:14.046Z,0.82
2019-01-21T12:26:59.766Z,0.87
2019-01-21T12:29:39.737Z,0.88
2019-01-21T12:32:25.151Z,0.98
2019-01-21T12:35:17.215Z,0.83
2019-01-21T12:37:53.659Z,0.90
2019-01-21T12:40:29.870Z,1.02
2019-01-21T12:43:08.403Z,0.99
2019-01-21T12:46:05.233Z,0.90
2019-01-21T12:48:46.816Z,0.96
2019-01-21T12:51:28.749Z,1.05
2019-01-21T12:54:23.716Z,0.96
2019-01-21T12:57:11.575Z,0.96
2019-01-21T12:59:47.640Z,0.98
2019-01-21T13:02:35.424Z,1.00
2019-01-21T13:05:26.998Z,1.00
2019-01-21T13:08:12.325Z,0.96
2019-01-21T13:10:45.790Z,0.96
2019-01-21T13:13:27.663Z,1.10
2019-01-21T13:16:12.299Z,1.13
2019-01-21T13:18:51.587Z,1.16
2019-01-21T13:21:52.765Z,1.30
2019-01-21T13:24:46.957Z,1.28
2019-01-21T13:27:49.394Z,1.28
2019-01-21T13:30:25.342Z,1.27
2019-01-21T13:33:07.246Z,1.25
2019-01-21T13:35:53.107Z,1.26
2019-01-21T13:38:45.458Z,1.25
2019-01-21T13:41:27.205Z,1.37
2019-01-21T13:44:12.098Z,1.39
2019-01-21T13:47:08.416Z,1.37
2019-01-21T13:49:50.678Z,1.37
2019-01-21T13:52:37.806Z,1.30
2019-01-21T13:55:17.050Z,1.43
2019-01-21T13:58:07.378Z,1.49
2019-01-21T14:00:55.953Z,1.49
2019-01-21T14:03:37.838Z,1.50
2019-01-21T14:06:18.114Z,1.46
2019-01-21T14:08:53.440Z,1.44
2019-01-21T14:11:35.854Z,1.38
2019-01-21T14:14:11.830Z,1.38
2019-01-21T14:16:54.298Z,1.43
2019-01-21T14:19:33.080Z,1.45
2019-01-21T14:22:20.024Z,1.40
2019-01-21T14:25:16.610Z,1.47
2019-01-21T14:28:25.746Z,1.38
2019-01-21T14:31:07.756Z,1.33
2019-01-21T14:33:58.980Z,1.29
2019-01-21T14:36:35.521Z,1.30
2019-01-21T14:39:09.550Z,1.28
2019-01-21T14:42:08.488Z,1.25
2019-01-21T14:45:04.151Z,1.19
2019-01-21T14:47:40.129Z,1.19
2019-01-21T14:50:35.829Z,1.14
2019-01-21T14:53:18.218Z,1.10
2019-01-21T14:55:54.462Z,1.24
2019-01-21T14:58:27.839Z,1.21
2019-01-21T15:01:16.186Z,1.28
2019-01-21T15:03:51.857Z,1.28
2019-01-21T15:06:39.799Z,1.25
2019-01-21T15:09:30.551Z,1.16
2019-01-21T15:12:22.402Z,1.18
2019-01-21T15:15:29.772Z,1.16
2019-01-21T15:18:22.927Z,1.16
2019-01-21T15:21:11.500Z,1.14
2019-01-21T15:24:12.472Z,1.22
2019-01-21T15:27:00.594Z,1.18
2019-01-21T15:29:39.690Z,1.21
2019-01-21T15:32:36.796Z,1.23
2019-01-21T15:35:12.700Z,1.33
2019-01-21T15:38:06.770Z,1.30
2019-01-21T15:41:09.964Z,1.35
2019-01-21T15:43:43.086Z,1.38
2019-01-21T15:46:19.584Z,1.32
2019-01-21T15:48:54.327Z,1.37
2019-01-21T15:51:33.979Z,1.36
2019-01-21T15:54:32.580Z,1.44
2019-01-21T15:57:33.276Z,1.49
2019-01-21T16:00:27.226Z,1.47
2019-01-21T16:03:35.300Z,1.42
2019-01-21T16:06:21.202Z,1.39
2019-01-21T16:09:11.212Z,1.47
2019-01-21T16:11:56.955Z,1.44
2019-01-21T16:14:30.249Z,1.46
2019-01-21T16:17:06.610Z,1.43
2019-01-21T16:19:36.905Z,1.35
2019-01-21T16:22:18.687Z,1.38
2019-01-21T16:25:03.714Z,1.45
2019-01-21T16:27:39.376Z,1.39
2019-01-21T16:30:27.701Z,1.34
2019-01-21T16:33:09.840Z,1.37
2019-01-21T16:35:45.567Z,1.42
2019-01-21T16:38:18.383Z,1.38
2019-01-21T16:40:51.668Z,1.39
2019-01-21T16:43:21.431Z,1.37
2019-01-21T16:45:51.274Z,1.36
2019-01-21T16:48:21.279Z,1.40
2019-01-21T16:50:51.424Z,1.40
2019-01-21T16:53:21.715Z,1.42
2019-01-21T16:55:51.759Z,1.38
2019-01-21T16:58:21.587Z,1.37
2019-01-21T17:00:51.289Z,1.34
2019-01-21T17:03:21.524Z,1.33
2019-01-21T17:05:51.446Z,1.42
2019-01-21T17:08:21.512Z,1.32
2019-01-21T17:10:51.836Z,1.27
2019-01-21T17:13:22.707Z,1.34
2019-01-21T17:15:52.835Z,1.29
2019-01-21T17:18:22.702Z,1.19
2019-01-21T17:20:57.078Z,1.23
2019-01-21T17:23:28.224Z,1.29
2019-01-21T17:26:20.627Z,1.31
2019-01-21T17:29:02.784Z,1.26
2019-01-21T17:31:45.752Z,1.33
2019-01-21T17:34:33.742Z,1.27
2019-01-21T17:37:16.496Z,1.26
2019-01-21T17:40:00.223Z,1.33
2019-01-21T17:42:43.746Z,1.33
2019-01-21T17:45:19.321Z,1.33
2019-01-21T17:48:07.835Z,1.37
2019-01-21T17:50:37.751Z,1.36
2019-01-21T17:53:14.491Z,1.44
2019-01-21T17:55:44.369Z,1.41
2019-01-21T17:58:15.976Z,1.45
2019-01-21T18:00:45.835Z,1.44
2019-01-21T18:03:20.753Z,1.49
2019-01-21T18:06:36.548Z,1.45
2019-01-21T18:09:28.414Z,1.46
2019-01-21T18:12:01.585Z,1.43
2019-01-21T18:14:37.812Z,1.40
2019-01-21T18:17:08.378Z,1.42
2019-01-21T18:19:43.594Z,1.51
2019-01-21T18:22:20.370Z,1.48
2019-01-21T18:24:54.246Z,1.42
2019-01-21T18:27:27.531Z,1.48
2019-01-21T18:29:59.294Z,1.49
2019-01-21T18:32:33.536Z,1.49
2019-01-21T18:35:09.542Z,1.48
2019-01-21T18:37:43.006Z,1.44
2019-01-21T18:40:20.617Z,1.49
2019-01-21T18:43:09.765Z,1.56
2019-01-21T18:45:42.398Z,1.54
2019-01-21T18:48:16.638Z,1.53
2019-01-21T18:51:09.365Z,1.56
2019-01-21T18:54:03.025Z,1.57
2019-01-21T18:56:46.157Z,1.56
2019-01-21T18:59:16.866Z,1.60
2019-01-21T19:01:46.922Z,1.65
2019-01-21T19:04:19.171Z,1.59
2019-01-21T19:06:49.351Z,1.57
2019-01-21T19:09:19.592Z,1.67
2019-01-21T19:11:49.653Z,1.62
2019-01-21T19:14:23.708Z,1.66
2019-01-21T19:16:54.190Z,1.65
2019-01-21T19:19:24.417Z,1.66
2019-01-21T19:21:54.440Z,1.65
2019-01-21T19:24:24.370Z,1.64
2019-01-21T19:26:54.252Z,1.68
2019-01-21T19:29:25.003Z,1.66
2019-01-21T19:31:55.083Z,1.66
2019-01-21T19:34:25.335Z,1.62
2019-01-21T19:36:55.607Z,1.62
2019-01-21T19:39:26.313Z,1.61
2019-01-21T19:41:56.568Z,1.62
2019-01-21T19:44:26.925Z,1.63
2019-01-21T19:46:57.559Z,1.66
2019-01-21T19:49:28.351Z,1.60
2019-01-21T19:52:00.473Z,1.57
2019-01-21T19:54:30.533Z,1.63
2019-01-21T19:57:03.714Z,1.57
2019-01-21T19:59:33.504Z,1.61
2019-01-21T20:02:03.282Z,1.58
2019-01-21T20:04:59.739Z,1.54
2019-01-21T20:07:45.724Z,1.57
2019-01-21T20:10:25.861Z,1.54
2019-01-21T20:13:04.903Z,1.54
2019-01-21T20:15:39.679Z,1.55
2019-01-21T20:18:11.543Z,1.60
2019-01-21T20:20:46.806Z,1.56
2019-01-21T20:23:20.720Z,1.57
2019-01-21T20:25:57.138Z,1.58
2019-01-21T20:28:28.728Z,1.54
2019-01-21T20:31:00.258Z,1.59
2019-01-21T20:33:31.955Z,1.58
2019-01-21T20:38:53.708Z,1.56
2019-01-21T20:41:25.153Z,1.58
2019-01-21T20:43:59.165Z,1.52
2019-01-21T20:50:26.870Z,1.55
2019-01-21T20:53:45.306Z,1.53
2019-01-21T21:00:04.535Z,1.59
2019-01-21T21:03:28.175Z,1.62
2019-01-21T21:06:38.637Z,1.57
2019-01-21T21:09:45.286Z,1.55
2019-01-21T21:12:51.663Z,1.54
2019-01-21T21:15:58.266Z,1.54
2019-01-21T21:19:11.757Z,1.57
2019-01-21T21:22:20.877Z,1.56
2019-01-21T21:25:28.361Z,1.47
2019-01-21T21:28:02.941Z,1.47
2019-01-21T21:30:33.625Z,1.39
2019-01-21T21:33:04.077Z,1.37
2019-01-21T21:35:33.888Z,1.40
2019-01-21T21:38:03.833Z,1.37
2019-01-21T21:40:34.976Z,1.30
2019-01-21T21:43:09.145Z,1.32
2019-01-21T21:45:43.756Z,1.33
2019-01-21T21:48:14.572Z,1.35
2019-01-21T21:50:44.778Z,1.29
2019-01-21T21:53:14.752Z,1.28
2019-01-21T21:55:53.933Z,1.34
2019-01-21T21:58:25.916Z,1.28
2019-01-21T22:00:55.661Z,1.26
2019-01-21T22:03:25.630Z,1.25
2019-01-21T22:05:55.535Z,1.28
2019-01-21T22:08:25.672Z,1.23
2019-01-21T22:10:55.618Z,1.21
2019-01-21T22:13:25.425Z,1.18
2019-01-21T22:15:55.256Z,1.20
2019-01-21T22:18:25.401Z,1.18
2019-01-21T22:20:55.595Z,1.18
2019-01-21T22:23:25.859Z,1.13
2019-01-21T22:25:56.112Z,1.07
2019-01-21T22:28:25.902Z,1.09
2019-01-21T22:30:56.573Z,1.12
2019-01-21T22:33:26.510Z,1.10
2019-01-21T22:35:56.623Z,1.07
2019-01-21T22:38:26.779Z,1.06
2019-01-21T22:40:59.011Z,1.05
2019-01-21T22:43:29.269Z,1.03
2019-01-21T22:45:59.564Z,1.03
2019-01-21T22:48:30.220Z,0.99
2019-01-21T22:51:00.508Z,1.00
2019-01-21T22:53:30.526Z,0.96
2019-01-21T22:56:00.731Z,0.97
2019-01-21T22:58:30.752Z,0.98
2019-01-21T23:01:05.628Z,0.94
2019-01-21T23:03:35.480Z,0.95
2019-01-21T23:06:07.297Z,1.05
2019-01-21T23:08:37.599Z,0.96
2019-01-21T23:11:07.771Z,0.92
2019-01-21T23:13:38.846Z,0.90
2019-01-21T23:16:12.827Z,0.93
2019-01-21T23:18:42.708Z,0.99
2019-01-21T23:21:12.523Z,0.92
2019-01-21T23:23:43.219Z,0.90
2019-01-21T23:26:13.340Z,0.90
2019-01-21T23:28:43.325Z,0.94
2019-01-21T23:31:13.192Z,0.90
2019-01-21T23:33:43.474Z,0.89
2019-01-21T23:36:13.551Z,0.90
2019-01-21T23:38:43.458Z,0.90
2019-01-21T23:41:13.497Z,0.83
2019-01-21T23:43:43.165Z,0.87
2019-01-21T23:46:12.882Z,0.79
2019-01-21T23:48:42.744Z,0.80
2019-01-21T23:51:13.668Z,0.81
2019-01-21T23:53:43.675Z,0.76
2019-01-21T23:56:13.496Z,0.78
2019-01-21T23:58:44.143Z,0.70
